createdAt,value
2022-08-07T00:02:37.155Z,53.66
2022-08-07T00:04:11.099Z,53.75
2022-08-07T00:06:12.928Z,54.10
2022-08-07T00:08:14.657Z,54.45
2022-08-07T00:10:25.968Z,54.64
2022-08-07T00:12:28.926Z,55.03
2022-08-07T00:14:31.367Z,54.95
2022-08-07T00:16:34.559Z,54.95
2022-08-07T00:18:37.120Z,54.88
2022-08-07T00:20:39.465Z,55.08
2022-08-07T00:22:42.333Z,55.44
2022-08-07T00:24:53.365Z,55.72
2022-08-07T00:27:06.731Z,56.44
2022-08-07T00:29:09.340Z,55.91
2022-08-07T00:31:12.604Z,56.06
2022-08-07T00:33:19.245Z,56.52
2022-08-07T00:35:23.222Z,56.40
2022-08-07T00:37:24.785Z,56.52
2022-08-07T00:39:31.053Z,56.82
2022-08-07T00:41:33.694Z,57.46
2022-08-07T00:44:01.617Z,57.58
2022-08-07T00:46:04.206Z,57.58
2022-08-07T00:48:11.331Z,58.02
2022-08-07T00:50:20.849Z,58.16
2022-08-07T00:52:36.695Z,58.25
2022-08-07T00:54:40.671Z,58.74
2022-08-07T00:56:42.398Z,58.85
2022-08-07T00:58:49.862Z,59.17
2022-08-07T01:00:53.479Z,58.98
2022-08-07T01:02:55.814Z,59.37
2022-08-07T01:05:00.257Z,59.93
2022-08-07T01:07:03.999Z,60.06
2022-08-07T01:09:05.519Z,59.70
2022-08-07T01:11:23.656Z,59.65
2022-08-07T01:13:35.284Z,59.99
2022-08-07T01:16:05.402Z,60.28
2022-08-07T01:17:59.057Z,60.18
2022-08-07T01:20:04.826Z,59.90
2022-08-07T01:22:08.660Z,60.07
2022-08-07T01:24:11.099Z,60.43
2022-08-07T01:26:16.669Z,60.66
2022-08-07T01:28:18.376Z,60.91
2022-08-07T01:30:20.041Z,61.11
2022-08-07T01:32:28.981Z,61.29
2022-08-07T01:34:31.650Z,62.41
2022-08-07T01:36:36.442Z,61.62
2022-08-07T01:38:44.007Z,62.01
2022-08-07T01:40:47.786Z,61.68
2022-08-07T01:42:56.929Z,62.22
2022-08-07T01:44:59.673Z,62.09
2022-08-07T01:48:17.519Z,61.94
2022-08-07T01:49:23.430Z,62.28
2022-08-07T01:52:03.079Z,62.45
2022-08-07T01:54:09.365Z,62.83
2022-08-07T01:56:17.324Z,62.97
2022-08-07T01:58:27.766Z,63.15
2022-08-07T02:00:32.693Z,63.32
2022-08-07T02:03:15.952Z,63.32
2022-08-07T02:05:06.078Z,63.68
2022-08-07T02:07:10.194Z,63.88
2022-08-07T02:09:52.402Z,63.86
2022-08-07T02:12:04.170Z,64.07
2022-08-07T02:14:07.550Z,63.88
2022-08-07T02:16:11.809Z,64.51
2022-08-07T02:18:15.247Z,64.87
2022-08-07T02:20:23.922Z,64.84
2022-08-07T02:22:27.999Z,65.37
2022-08-07T02:24:31.631Z,65.38
2022-08-07T02:26:35.795Z,65.29
2022-08-07T02:28:39.519Z,65.33
2022-08-07T02:30:44.147Z,65.40
2022-08-07T02:33:03.999Z,64.88
2022-08-07T02:35:11.003Z,64.76
2022-08-07T02:37:14.430Z,63.73
2022-08-07T02:39:43.477Z,64.16
2022-08-07T02:41:40.613Z,64.24
2022-08-07T02:43:50.012Z,64.21
2022-08-07T02:46:00.826Z,64.31
2022-08-07T02:48:04.465Z,64.43
2022-08-07T02:50:12.069Z,64.50
2022-08-07T02:52:21.404Z,64.63
2022-08-07T02:54:25.892Z,64.69
2022-08-07T02:56:31.606Z,65.47
2022-08-07T02:58:36.661Z,65.20
2022-08-07T03:00:47.380Z,64.71
2022-08-07T03:02:54.389Z,65.14
2022-08-07T03:04:57.725Z,65.39
2022-08-07T03:07:07.088Z,64.90
2022-08-07T03:09:12.533Z,65.11
2022-08-07T03:11:14.952Z,65.52
2022-08-07T03:13:19.634Z,65.71
2022-08-07T03:15:30.235Z,65.83
2022-08-07T03:17:53.471Z,66.08
2022-08-07T03:19:56.620Z,66.81
2022-08-07T03:21:58.880Z,66.14
2022-08-07T03:24:20.859Z,66.12
2022-08-07T03:26:25.827Z,66.58
2022-08-07T03:28:38.418Z,67.07
2022-08-07T03:30:44.909Z,67.23
2022-08-07T03:32:49.127Z,66.40
2022-08-07T03:35:17.581Z,67.07
2022-08-07T03:37:21.621Z,67.19
2022-08-07T03:39:59.350Z,67.25
2022-08-07T03:41:54.942Z,67.27
2022-08-07T03:43:57.744Z,67.12
2022-08-07T03:46:02.765Z,67.37
2022-08-07T03:48:04.999Z,66.62
2022-08-07T03:50:12.182Z,67.00
2022-08-07T03:52:22.932Z,66.95
2022-08-07T03:54:35.546Z,66.86
2022-08-07T03:56:40.188Z,66.81
2022-08-07T03:59:08.102Z,67.08
2022-08-07T04:01:14.483Z,67.15
2022-08-07T04:03:16.866Z,66.89
2022-08-07T04:05:20.757Z,67.28
2022-08-07T04:07:36.258Z,67.28
2022-08-07T04:09:50.313Z,66.37
2022-08-07T04:12:25.275Z,66.61
2022-08-07T04:14:37.518Z,66.62
2022-08-07T04:16:38.420Z,66.25
2022-08-07T04:18:59.465Z,66.02
2022-08-07T04:21:03.932Z,65.39
2022-08-07T04:23:10.302Z,65.14
2022-08-07T04:25:23.590Z,64.78
2022-08-07T04:27:26.442Z,64.23
2022-08-07T04:29:30.385Z,62.83
2022-08-07T04:32:10.118Z,61.36
2022-08-07T04:34:06.638Z,60.68
2022-08-07T04:36:22.898Z,60.53
2022-08-07T04:38:28.344Z,60.00
2022-08-07T04:40:32.361Z,60.51
2022-08-07T04:42:34.055Z,60.42
2022-08-07T04:44:37.313Z,59.86
2022-08-07T04:47:08.143Z,59.43
2022-08-07T04:49:17.471Z,56.76
2022-08-07T04:51:27.058Z,53.25
2022-08-07T04:54:01.124Z,50.79
2022-08-07T04:58:09.386Z,47.68
2022-08-07T04:59:15.823Z,46.23
2022-08-07T05:01:06.863Z,46.76
2022-08-07T05:04:06.760Z,46.46
2022-08-07T05:05:53.497Z,47.41
2022-08-07T05:08:02.928Z,48.33
2022-08-07T05:10:10.147Z,48.47
2022-08-07T05:12:27.208Z,48.95
2022-08-07T05:14:56.351Z,49.08
2022-08-07T05:17:02.237Z,49.28
2022-08-07T05:19:14.055Z,49.05
2022-08-07T05:21:59.261Z,48.59
2022-08-07T05:23:47.534Z,48.17
2022-08-07T05:26:10.407Z,47.32
2022-08-07T05:28:20.811Z,47.32
2022-08-07T05:30:32.853Z,46.67
2022-08-07T05:32:35.850Z,46.54
2022-08-07T05:34:41.004Z,45.90
2022-08-07T05:36:48.987Z,45.35
2022-08-07T05:38:59.484Z,45.14
2022-08-07T05:41:05.465Z,44.65
2022-08-07T05:43:14.805Z,44.20
2022-08-07T05:45:46.204Z,43.71
2022-08-07T05:48:02.191Z,43.65
2022-08-07T05:50:04.219Z,42.87
2022-08-07T05:52:07.701Z,42.45
2022-08-07T05:54:31.466Z,42.47
2022-08-07T05:56:36.375Z,42.88
2022-08-07T05:58:39.211Z,42.64
2022-08-07T06:00:42.016Z,41.98
2022-08-07T06:02:50.258Z,41.41
2022-08-07T06:04:56.900Z,41.69
2022-08-07T06:07:03.626Z,41.25
2022-08-07T06:09:06.487Z,41.54
2022-08-07T06:11:09.153Z,41.53
2022-08-07T06:13:13.458Z,40.89
2022-08-07T06:15:19.930Z,40.29
2022-08-07T06:17:22.963Z,39.87
2022-08-07T06:19:51.877Z,39.44
2022-08-07T06:22:14.891Z,39.54
2022-08-07T06:24:45.919Z,40.18
2022-08-07T06:26:42.159Z,38.26
2022-08-07T06:28:48.779Z,38.75
2022-08-07T06:30:53.161Z,38.44
2022-08-07T06:32:54.747Z,38.38
2022-08-07T06:34:56.288Z,38.88
2022-08-07T06:36:57.843Z,37.61
2022-08-07T06:40:16.703Z,36.97
2022-08-07T06:41:29.426Z,36.48
2022-08-07T06:43:59.534Z,37.23
2022-08-07T06:46:12.252Z,37.65
2022-08-07T06:48:14.060Z,37.95
2022-08-07T06:50:19.086Z,37.28
2022-08-07T06:52:31.272Z,37.49
2022-08-07T06:55:33.881Z,37.98
2022-08-07T06:57:02.491Z,38.30
2022-08-07T07:00:13.438Z,38.75
2022-08-07T07:01:41.804Z,39.06
2022-08-07T07:03:49.987Z,39.73
2022-08-07T07:06:05.137Z,38.45
2022-08-07T07:08:12.371Z,39.37
2022-08-07T07:10:27.807Z,38.65
2022-08-07T07:12:48.968Z,37.71
2022-08-07T07:14:57.948Z,37.15
2022-08-07T07:17:03.101Z,35.96
2022-08-07T07:19:54.370Z,35.63
2022-08-07T07:21:40.204Z,35.98
2022-08-07T07:24:10.184Z,35.60
2022-08-07T07:26:34.514Z,35.81
2022-08-07T07:29:23.676Z,35.45
2022-08-07T07:31:08.420Z,35.16
2022-08-07T07:33:12.548Z,35.32
2022-08-07T07:35:16.591Z,35.84
2022-08-07T07:37:21.916Z,35.06
2022-08-07T07:39:52.161Z,34.41
2022-08-07T07:42:13.759Z,34.70
2022-08-07T07:44:26.518Z,34.23
2022-08-07T07:46:36.666Z,34.57
2022-08-07T07:49:08.793Z,33.67
2022-08-07T07:51:12.521Z,32.99
2022-08-07T07:53:25.656Z,33.47
2022-08-07T07:55:37.569Z,32.96
2022-08-07T07:57:52.907Z,32.85
2022-08-07T07:59:58.365Z,33.03
2022-08-07T08:02:10.291Z,33.93
2022-08-07T08:04:13.855Z,33.67
2022-08-07T08:06:17.894Z,34.12
2022-08-07T08:08:34.549Z,33.51
2022-08-07T08:10:39.372Z,33.55
2022-08-07T08:12:52.262Z,33.45
2022-08-07T08:15:01.940Z,33.54
2022-08-07T08:17:56.093Z,33.94
2022-08-07T08:20:18.529Z,33.99
2022-08-07T08:22:03.024Z,33.99
2022-08-07T08:24:06.920Z,33.87
2022-08-07T08:26:28.559Z,33.70
2022-08-07T08:28:38.703Z,33.52
2022-08-07T08:30:51.429Z,33.21
2022-08-07T08:32:59.961Z,34.10
2022-08-07T08:35:03.497Z,34.02
2022-08-07T08:37:09.791Z,32.87
2022-08-07T08:39:39.883Z,32.43
2022-08-07T08:41:59.422Z,32.96
2022-08-07T08:44:08.409Z,32.52
2022-08-07T08:46:21.982Z,32.21
2022-08-07T08:48:32.643Z,32.64
2022-08-07T08:50:40.461Z,32.13
2022-08-07T08:52:54.225Z,31.78
2022-08-07T08:55:07.536Z,31.15
2022-08-07T08:57:18.935Z,30.60
2022-08-07T08:59:29.118Z,31.02
2022-08-07T09:01:46.444Z,30.38
2022-08-07T09:03:59.527Z,30.67
2022-08-07T09:06:08.009Z,29.93
2022-08-07T09:08:28.102Z,29.29
2022-08-07T09:10:38.226Z,29.54
2022-08-07T09:12:54.217Z,29.75
2022-08-07T09:16:20.054Z,30.16
2022-08-07T09:17:59.060Z,30.34
2022-08-07T09:20:34.652Z,30.54
2022-08-07T09:24:32.557Z,29.18
2022-08-07T09:25:17.505Z,29.73
2022-08-07T09:27:28.985Z,29.46
2022-08-07T09:30:03.930Z,29.39
2022-08-07T09:32:18.643Z,29.08
2022-08-07T09:34:27.525Z,28.78
2022-08-07T09:36:35.612Z,28.42
2022-08-07T09:38:50.299Z,27.58
2022-08-07T09:41:04.610Z,27.59
2022-08-07T09:43:19.436Z,27.24
2022-08-07T09:47:24.103Z,26.97
2022-08-07T09:48:25.117Z,27.44
2022-08-07T09:50:44.923Z,27.37
2022-08-07T09:52:53.801Z,27.68
2022-08-07T09:54:59.053Z,26.88
2022-08-07T09:57:21.758Z,26.63
2022-08-07T09:59:46.723Z,26.35
2022-08-07T10:02:29.530Z,26.44
2022-08-07T10:05:00.292Z,26.32
2022-08-07T10:07:25.751Z,26.20
2022-08-07T10:10:00.157Z,26.91
2022-08-07T10:12:19.729Z,27.46
2022-08-07T10:14:41.500Z,27.86
2022-08-07T10:17:03.482Z,26.88
2022-08-07T10:19:30.175Z,27.04
2022-08-07T10:22:12.388Z,27.00
2022-08-07T10:24:30.032Z,26.05
2022-08-07T10:26:52.972Z,26.38
2022-08-07T10:29:07.522Z,26.30
2022-08-07T10:31:31.510Z,26.69
2022-08-07T10:34:17.864Z,26.45
2022-08-07T10:36:38.403Z,26.47
2022-08-07T10:38:51.538Z,26.66
2022-08-07T10:41:06.146Z,25.55
2022-08-07T10:43:15.037Z,25.25
2022-08-07T10:45:44.568Z,25.21
2022-08-07T10:48:04.908Z,25.15
2022-08-07T10:50:17.033Z,25.66
2022-08-07T10:52:31.861Z,25.58
2022-08-07T10:54:42.578Z,24.89
2022-08-07T10:57:08.450Z,25.50
2022-08-07T10:59:21.685Z,24.45
2022-08-07T11:01:51.526Z,25.71
2022-08-07T11:04:16.595Z,25.00
2022-08-07T11:06:32.040Z,24.70
2022-08-07T11:08:41.031Z,24.87
2022-08-07T11:10:49.993Z,24.77
2022-08-07T11:13:02.584Z,25.15
2022-08-07T11:15:09.569Z,24.80
2022-08-07T11:17:45.298Z,26.07
2022-08-07T11:19:52.713Z,26.16
2022-08-07T11:22:06.949Z,26.75
2022-08-07T11:24:23.956Z,27.22
2022-08-07T11:26:31.558Z,27.50
2022-08-07T11:28:40.910Z,28.01
2022-08-07T11:30:53.274Z,28.32
2022-08-07T11:33:02.396Z,27.84
2022-08-07T11:35:11.949Z,29.02
2022-08-07T11:37:38.499Z,28.34
2022-08-07T11:40:07.505Z,27.67
2022-08-07T11:42:18.554Z,27.64
2022-08-07T11:44:32.529Z,28.64
2022-08-07T11:46:53.263Z,28.61
2022-08-07T11:50:11.145Z,27.94
2022-08-07T11:52:03.770Z,28.04
2022-08-07T11:54:22.162Z,28.96
2022-08-07T11:56:45.110Z,29.10
2022-08-07T12:00:07.701Z,29.51
2022-08-07T12:02:00.119Z,28.85
2022-08-07T12:04:16.926Z,28.65
2022-08-07T12:06:39.200Z,28.24
2022-08-07T12:08:50.187Z,28.98
2022-08-07T12:11:08.177Z,27.65
2022-08-07T12:13:35.329Z,27.77
2022-08-07T12:16:05.429Z,27.70
2022-08-07T12:18:15.991Z,26.10
2022-08-07T12:20:30.381Z,26.48
2022-08-07T12:22:46.973Z,26.36
2022-08-07T12:25:07.715Z,25.60
2022-08-07T12:27:13.300Z,24.71
2022-08-07T12:29:38.090Z,25.28
2022-08-07T12:31:53.150Z,26.51
2022-08-07T12:34:11.192Z,26.47
2022-08-07T12:36:15.025Z,27.39
2022-08-07T12:38:29.396Z,27.26
2022-08-07T12:40:46.456Z,28.66
2022-08-07T12:42:55.169Z,28.78
2022-08-07T12:45:04.428Z,28.26
2022-08-07T12:47:30.428Z,29.44
2022-08-07T12:49:51.176Z,28.89
2022-08-07T12:52:13.798Z,28.70
2022-08-07T12:54:38.206Z,28.43
2022-08-07T12:56:43.277Z,28.53
2022-08-07T12:58:57.927Z,28.57
2022-08-07T13:01:08.185Z,28.60
2022-08-07T13:03:56.075Z,27.98
2022-08-07T13:06:21.727Z,27.76
2022-08-07T13:08:43.644Z,27.78
2022-08-07T13:10:58.565Z,28.24
2022-08-07T13:13:48.902Z,28.66
2022-08-07T13:15:51.139Z,28.17
2022-08-07T13:18:10.025Z,28.41
2022-08-07T13:20:39.444Z,27.95
2022-08-07T13:22:53.367Z,27.80
2022-08-07T13:25:02.372Z,27.45
2022-08-07T13:27:12.747Z,27.23
2022-08-07T13:29:20.177Z,27.07
2022-08-07T13:31:32.153Z,26.66
2022-08-07T13:34:34.442Z,25.89
2022-08-07T13:36:17.523Z,26.35
2022-08-07T13:38:29.320Z,24.94
2022-08-07T13:40:42.259Z,25.01
2022-08-07T13:42:49.430Z,25.31
2022-08-07T13:45:11.550Z,25.00
2022-08-07T13:47:15.884Z,25.00
2022-08-07T13:50:33.462Z,24.44
2022-08-07T13:52:23.016Z,24.17
2022-08-07T13:54:23.645Z,24.56
2022-08-07T13:56:35.926Z,24.58
2022-08-07T13:58:56.140Z,24.80
2022-08-07T14:01:09.194Z,24.89
2022-08-07T14:03:13.869Z,24.55
2022-08-07T14:05:38.020Z,24.15
2022-08-07T14:08:00.667Z,24.19
2022-08-07T14:10:17.864Z,24.68
2022-08-07T14:12:36.274Z,24.34
2022-08-07T14:14:48.179Z,24.23
2022-08-07T14:16:53.464Z,24.68
2022-08-07T14:18:57.590Z,24.19
2022-08-07T14:21:11.787Z,24.57
2022-08-07T14:23:31.735Z,25.53
2022-08-07T14:26:00.510Z,24.92
2022-08-07T14:28:11.358Z,24.21
2022-08-07T14:30:16.127Z,24.78
2022-08-07T14:32:40.607Z,24.76
2022-08-07T14:34:46.566Z,24.83
2022-08-07T14:36:56.374Z,23.89
2022-08-07T14:39:01.383Z,24.23
2022-08-07T14:41:14.892Z,25.14
2022-08-07T14:43:58.430Z,24.72
2022-08-07T14:48:10.426Z,24.82
2022-08-07T14:50:22.276Z,24.93
2022-08-07T14:52:27.967Z,25.71
2022-08-07T14:54:35.712Z,25.46
2022-08-07T14:56:47.728Z,25.58
2022-08-07T14:58:55.231Z,25.25
2022-08-07T15:00:59.097Z,24.76
2022-08-07T15:03:16.668Z,25.25
2022-08-07T15:07:50.861Z,25.54
2022-08-07T15:09:58.909Z,25.11
2022-08-07T15:12:09.026Z,25.08
2022-08-07T15:14:17.499Z,25.37
2022-08-07T15:18:50.276Z,23.95
2022-08-07T15:20:54.962Z,24.33
2022-08-07T15:23:00.062Z,24.63
2022-08-07T15:25:23.813Z,25.08
2022-08-07T15:28:32.881Z,24.63
2022-08-07T15:30:16.513Z,24.81
2022-08-07T15:32:39.184Z,24.79
2022-08-07T15:34:50.700Z,25.37
2022-08-07T15:37:06.555Z,25.32
2022-08-07T15:39:10.803Z,25.10
2022-08-07T15:41:23.424Z,25.62
2022-08-07T15:43:33.537Z,25.35
2022-08-07T15:45:56.545Z,25.33
2022-08-07T15:48:04.165Z,25.19
2022-08-07T15:50:12.414Z,24.93
2022-08-07T15:52:36.415Z,25.36
2022-08-07T15:54:41.010Z,25.24
2022-08-07T15:56:42.769Z,25.45
2022-08-07T15:58:52.985Z,25.31
2022-08-07T16:00:55.278Z,24.78
2022-08-07T16:02:58.750Z,25.55
2022-08-07T16:05:15.178Z,25.18
2022-08-07T16:08:33.089Z,24.57
2022-08-07T16:09:49.317Z,25.00
2022-08-07T16:12:28.664Z,25.75
2022-08-07T16:14:52.347Z,25.56
2022-08-07T16:17:15.411Z,25.40
2022-08-07T16:19:41.878Z,25.36
2022-08-07T16:22:19.268Z,25.44
2022-08-07T16:24:34.641Z,24.71
2022-08-07T16:26:59.219Z,25.57
2022-08-07T16:30:09.209Z,24.91
2022-08-07T16:31:51.957Z,25.01
2022-08-07T16:34:10.132Z,25.19
2022-08-07T16:36:31.385Z,25.39
2022-08-07T16:38:59.983Z,25.60
2022-08-07T16:41:20.780Z,25.79
2022-08-07T16:44:02.592Z,25.67
2022-08-07T16:50:20.439Z,27.00
2022-08-07T16:51:54.102Z,27.34
2022-08-07T16:54:32.981Z,27.64
2022-08-07T16:56:53.191Z,27.69
2022-08-07T16:59:15.016Z,27.90
2022-08-07T17:01:41.248Z,27.50
2022-08-07T17:03:58.581Z,27.17
2022-08-07T17:06:30.056Z,27.54
2022-08-07T17:09:04.226Z,27.43
2022-08-07T17:11:01.315Z,27.90
2022-08-07T17:13:41.081Z,27.64
2022-08-07T17:16:01.077Z,27.35
2022-08-07T17:18:27.943Z,27.51
2022-08-07T17:20:32.800Z,27.64
2022-08-07T17:22:39.141Z,27.60
2022-08-07T17:25:03.174Z,27.90
2022-08-07T17:27:09.926Z,27.81
2022-08-07T17:30:15.929Z,27.93
2022-08-07T17:32:02.849Z,27.94
2022-08-07T17:34:33.159Z,28.22
2022-08-07T17:36:58.402Z,28.34
2022-08-07T17:39:10.398Z,28.48
2022-08-07T17:42:04.257Z,28.58
2022-08-07T17:44:02.683Z,28.09
2022-08-07T17:46:12.489Z,28.28
2022-08-07T17:48:30.419Z,28.68
2022-08-07T17:50:46.966Z,28.90
2022-08-07T17:52:55.133Z,28.09
2022-08-07T17:55:07.773Z,28.16
2022-08-07T17:57:18.794Z,28.47
2022-08-07T17:59:23.909Z,28.91
2022-08-07T18:01:36.658Z,29.07
2022-08-07T18:03:54.017Z,28.99
2022-08-07T18:06:16.804Z,29.17
2022-08-07T18:08:33.987Z,29.51
2022-08-07T18:12:06.234Z,29.43
2022-08-07T18:13:15.322Z,28.95
2022-08-07T18:15:32.510Z,29.08
2022-08-07T18:18:44.595Z,29.49
2022-08-07T18:21:03.693Z,30.17
2022-08-07T18:22:35.516Z,30.58
2022-08-07T18:24:44.725Z,30.86
2022-08-07T18:27:17.415Z,31.17
2022-08-07T18:30:07.715Z,31.37
2022-08-07T18:32:00.108Z,31.15
2022-08-07T18:34:39.395Z,31.57
2022-08-07T18:36:53.946Z,31.67
2022-08-07T18:40:07.919Z,31.88
2022-08-07T18:41:54.582Z,32.46
2022-08-07T18:44:03.301Z,32.67
2022-08-07T18:46:22.373Z,32.70
2022-08-07T18:50:33.099Z,33.14
2022-08-07T18:51:08.461Z,33.24
2022-08-07T18:53:16.433Z,33.01
2022-08-07T18:55:42.645Z,33.00
2022-08-07T18:57:59.641Z,33.34
2022-08-07T19:00:33.201Z,33.58
2022-08-07T19:02:42.162Z,33.69
2022-08-07T19:05:10.646Z,33.62
2022-08-07T19:07:34.468Z,33.68
2022-08-07T19:09:57.100Z,33.99
2022-08-07T19:12:26.465Z,34.34
2022-08-07T19:16:04.877Z,34.64
2022-08-07T19:18:03.353Z,34.87
2022-08-07T19:20:29.657Z,34.76
2022-08-07T19:22:39.388Z,35.15
2022-08-07T19:24:48.099Z,35.44
2022-08-07T19:27:01.899Z,35.95
2022-08-07T19:30:57.029Z,35.65
2022-08-07T19:32:09.701Z,35.92
2022-08-07T19:34:08.254Z,36.09
2022-08-07T19:36:14.219Z,36.19
2022-08-07T19:38:32.262Z,35.77
2022-08-07T19:40:38.744Z,36.25
2022-08-07T19:42:53.419Z,36.21
2022-08-07T19:44:56.458Z,36.29
2022-08-07T19:47:05.981Z,36.42
2022-08-07T19:49:14.787Z,36.74
2022-08-07T19:51:19.882Z,36.83
2022-08-07T19:54:31.745Z,36.89
2022-08-07T19:55:57.332Z,36.87
2022-08-07T19:58:13.536Z,37.09
2022-08-07T20:00:28.261Z,37.49
2022-08-07T20:02:35.067Z,37.79
2022-08-07T20:04:46.286Z,38.16
2022-08-07T20:06:53.822Z,38.01
2022-08-07T20:08:58.642Z,38.15
2022-08-07T20:11:03.791Z,38.26
2022-08-07T20:13:23.456Z,38.74
2022-08-07T20:15:32.723Z,38.75
2022-08-07T20:17:38.781Z,38.88
2022-08-07T20:19:48.117Z,39.19
2022-08-07T20:22:01.423Z,38.95
2022-08-07T20:24:12.133Z,39.07
2022-08-07T20:26:20.421Z,39.20
2022-08-07T20:28:37.619Z,38.77
2022-08-07T20:30:46.754Z,39.03
2022-08-07T20:32:50.285Z,39.23
2022-08-07T20:34:57.371Z,39.22
2022-08-07T20:37:00.384Z,39.41
2022-08-07T20:39:30.574Z,39.42
2022-08-07T20:41:28.728Z,39.66
2022-08-07T20:43:47.353Z,39.79
2022-08-07T20:46:28.154Z,39.83
2022-08-07T20:48:28.607Z,39.94
2022-08-07T20:50:33.683Z,40.20
2022-08-07T20:52:51.848Z,40.31
2022-08-07T20:54:55.692Z,40.29
2022-08-07T20:57:00.803Z,40.59
2022-08-07T20:59:05.304Z,40.53
2022-08-07T21:01:19.597Z,40.35
2022-08-07T21:03:25.892Z,40.48
2022-08-07T21:05:50.882Z,40.73
2022-08-07T21:07:57.855Z,40.75
2022-08-07T21:10:03.005Z,40.71
2022-08-07T21:12:08.287Z,40.72
2022-08-07T21:14:34.171Z,40.78
2022-08-07T21:16:56.285Z,41.31
2022-08-07T21:19:02.561Z,41.24
2022-08-07T21:21:05.629Z,41.14
2022-08-07T21:23:18.261Z,41.17
2022-08-07T21:25:30.596Z,41.72
2022-08-07T21:28:01.684Z,42.05
2022-08-07T21:30:06.162Z,42.09
2022-08-07T21:32:47.679Z,42.29
2022-08-07T21:34:46.064Z,42.32
2022-08-07T21:36:56.060Z,42.59
2022-08-07T21:39:47.952Z,42.78
2022-08-07T21:42:00.768Z,42.86
2022-08-07T21:44:14.649Z,43.11
2022-08-07T21:46:35.624Z,43.04
2022-08-07T21:48:55.918Z,42.92
2022-08-07T21:51:06.734Z,42.77
2022-08-07T21:53:12.557Z,42.98
2022-08-07T21:55:28.242Z,43.25
2022-08-07T21:57:57.755Z,43.13
2022-08-07T22:00:07.218Z,43.00
2022-08-07T22:02:14.543Z,42.61
2022-08-07T22:04:24.882Z,42.70
2022-08-07T22:06:31.476Z,42.52
2022-08-07T22:08:42.041Z,42.68
2022-08-07T22:10:48.011Z,42.37
2022-08-07T22:12:53.610Z,42.52
2022-08-07T22:16:43.194Z,42.62
2022-08-07T22:17:35.869Z,42.53
2022-08-07T22:19:45.437Z,42.44
2022-08-07T22:22:02.754Z,42.48
2022-08-07T22:24:16.134Z,42.61
2022-08-07T22:26:23.020Z,43.01
2022-08-07T22:28:31.180Z,43.03
2022-08-07T22:30:53.086Z,42.98
2022-08-07T22:33:05.084Z,43.22
2022-08-07T22:35:07.847Z,43.53
2022-08-07T22:37:18.893Z,43.67
2022-08-07T22:39:23.781Z,43.86
2022-08-07T22:42:02.422Z,43.32
2022-08-07T22:44:01.579Z,43.35
2022-08-07T22:47:02.191Z,43.52
2022-08-07T22:49:07.895Z,43.77
2022-08-07T22:52:00.687Z,43.68
2022-08-07T22:54:26.195Z,43.53
2022-08-07T22:56:39.495Z,43.56
2022-08-07T22:59:09.617Z,43.86
2022-08-07T23:01:26.617Z,43.70
2022-08-07T23:03:58.942Z,44.01
2022-08-07T23:06:18.125Z,43.91
2022-08-07T23:10:01.003Z,44.02
2022-08-07T23:11:41.224Z,44.48
2022-08-07T23:14:15.386Z,44.36
2022-08-07T23:16:44.402Z,44.50
2022-08-07T23:18:57.457Z,44.70
2022-08-07T23:21:16.286Z,44.76
2022-08-07T23:24:05.011Z,44.87
2022-08-07T23:26:18.277Z,45.12
2022-08-07T23:28:44.292Z,45.10
2022-08-07T23:31:13.850Z,45.18
2022-08-07T23:34:35.850Z,45.43
2022-08-07T23:36:10.695Z,45.76
2022-08-07T23:38:37.009Z,45.96
2022-08-07T23:40:50.963Z,46.12
2022-08-07T23:43:16.922Z,46.03
2022-08-07T23:46:02.259Z,46.12
2022-08-07T23:48:04.390Z,46.00
2022-08-07T23:50:33.561Z,45.95
2022-08-07T23:53:06.124Z,45.88
2022-08-07T23:55:52.353Z,46.24
2022-08-07T23:57:43.855Z,46.39
